Latest Weather Observations for Forrest

IDW60801

Issued at 8:02 am WST Friday 29 May 2015 (issued every 30 minutes, with the page automatically refreshed every 10 minutes)

About weather observations | Map of weather stations | Latest weather observations for WA | Other Formats
Station Details ID: 011052 Name: FORREST Lat: -30.85 Lon: 128.11 Height: 159.0 m
Data from the previous 72 hours. | See also: Recent months at Forrest
Date/Time
WST
Temp
°C
App
Temp
°C
Dew
Point
Rel
Hum
%
Delta-T
°C
Wind Press
QNH
hPa
Press
MSL
hPa
Rain
since 9 am
mm
Dir
 
Spd
km/h
Gust
km/h
Spd
kts
Gust
kts
29/08:00am 8.7 6.3 8.7 100 0.0 S 11 15 6 8 1026.2 - 0.0
29/07:30am 8.5 5.7 8.4 99 0.0 SSW 13 17 7 9 1026.0 - 0.0
29/07:00am 8.8 6.4 8.5 98 0.1 S 11 13 6 7 1025.7 - 0.0
29/06:30am 8.8 7.1 8.5 98 0.1 SSE 7 9 4 5 1025.4 - 0.0
29/06:00am 9.0 7.3 8.5 97 0.2 S 7 9 4 5 1025.2 1025.1 0.0
29/05:30am 9.7 7.5 9.2 97 0.2 S 11 13 6 7 1024.9 - 0.0
29/05:00am 10.4 8.3 9.9 97 0.3 S 11 13 6 7 1024.4 - 0.0
29/04:30am 11.0 8.7 10.4 96 0.3 SSE 13 17 7 9 1024.2 - 0.0
29/04:00am 11.3 9.8 10.7 96 0.3 S 9 13 5 7 1024.5 - 0.0
29/03:30am 11.5 9.7 10.7 95 0.4 SSE 11 15 6 8 1024.0 - 0.0
29/03:00am 11.8 10.0 10.9 94 0.5 SSE 11 15 6 8 1024.1 1024.1 0.0
29/02:30am 11.6 9.3 10.5 93 0.6 S 13 17 7 9 1023.9 - 0.0
29/02:00am 11.5 9.2 10.4 93 0.6 S 13 17 7 9 1024.1 - 0.0
29/01:30am 11.7 9.8 10.6 93 0.6 SE 11 15 6 8 1024.1 - 0.0
29/01:00am 11.5 9.1 10.1 91 0.7 S 13 15 7 8 1024.2 - 0.0
29/12:30am 11.8 9.4 10.2 90 0.8 S 13 15 7 8 1024.2 - 0.0
29/12:00am 12.1 10.3 10.8 92 0.7 SSE 11 15 6 8 1024.2 1024.2 0.0
 
Date/Time
WST
Temp
°C
App
Temp
°C
Dew
Point
Rel
Hum
%
Delta-T
°C
Wind Press
QNH
hPa
Press
MSL
hPa
Rain
since 9 am
mm
Dir
 
Spd
km/h
Gust
km/h
Spd
kts
Gust
kts
28/11:30pm 11.6 10.3 10.0 90 0.8 SE 7 9 4 5 1024.2 - 0.0
28/11:00pm 12.4 10.5 10.6 89 0.9 S 11 13 6 7 1024.4 - 0.0
28/10:30pm 12.8 11.0 10.7 87 1.1 SE 11 13 6 7 1024.3 - 0.0
28/10:00pm 12.8 10.5 10.5 86 1.2 SE 13 15 7 8 1024.4 - 0.0
28/09:30pm 12.7 10.3 10.1 84 1.3 SE 13 15 7 8 1024.3 - 0.0
28/09:00pm 12.8 10.3 9.8 82 1.5 SSE 13 15 7 8 1024.4 1024.4 0.0
28/08:30pm 13.8 11.8 10.2 79 1.9 SE 11 15 6 8 1024.3 - 0.0
28/08:00pm 14.4 13.1 11.2 81 1.7 E 9 13 5 7 1023.9 - 0.0
28/07:30pm 14.9 11.7 11.1 78 2.0 ESE 19 24 10 13 1023.4 - 0.0
28/07:00pm 15.8 12.2 10.6 71 2.8 ESE 20 26 11 14 1023.2 - 0.0
28/06:34pm 14.5 10.8 11.6 83 1.6 SSE 22 102 12 55 1022.8 - 0.0
28/06:33pm 14.5 2.7 11.6 83 1.6 E 65 102 35 55 1022.8 - 0.0
28/06:32pm 14.5 0.6 11.6 83 1.6 NE 76 102 41 55 1022.7 - 0.0
28/06:30pm 14.4 13.7 11.4 82 1.6 NNE 6 7 3 4 1022.7 - 0.0
28/06:00pm 15.0 14.1 11.4 79 1.9 NNE 7 11 4 6 1022.2 1022.2 0.0
28/05:30pm 15.8 15.0 11.6 76 2.3 NNE 7 9 4 5 1021.6 - 0.0
28/05:00pm 16.3 15.1 11.7 74 2.5 NNE 9 11 5 6 1021.5 - 0.0
28/04:30pm 17.5 16.7 11.1 66 3.5 E 6 9 3 5 1021.3 - 0.0
28/04:00pm 18.3 17.2 10.7 61 4.1 E 7 9 4 5 1020.9 - 0.0
28/03:30pm 18.5 17.4 10.8 61 4.2 NE 7 9 4 5 1021.0 - 0.0
28/03:00pm 18.7 16.9 11.0 61 4.2 E 11 13 6 7 1020.8 1020.7 0.0
28/02:30pm 18.5 16.0 11.1 62 4.0 E 15 19 8 10 1020.7 - 0.0
28/02:00pm 18.5 16.8 11.3 63 4.0 ENE 11 15 6 8 1020.7 - 0.0
28/01:30pm 18.3 16.1 10.9 62 4.0 ENE 13 17 7 9 1020.7 - 0.0
28/01:00pm 18.7 15.4 11.0 61 4.2 ENE 19 22 10 12 1020.7 - 0.0
28/12:30pm 18.3 16.6 11.1 63 3.9 E 11 17 6 9 1021.0 - 0.0
28/12:00pm 18.2 15.6 10.6 61 4.1 ESE 15 20 8 11 1021.0 1020.9 0.0
28/11:30am 18.7 16.5 12.0 65 3.7 SE 15 22 8 12 1021.3 - 0.0
28/11:00am 16.9 14.0 12.4 75 2.5 ESE 19 26 10 14 1021.5 - 0.0
28/10:30am 15.4 14.4 14.6 95 0.5 ESE 13 17 7 9 1022.1 - 0.0
28/10:00am 14.3 13.6 14.3 100 0.0 ESE 11 17 6 9 1022.4 - 0.0
28/09:30am 13.3 12.3 13.3 100 0.0 ESE 11 13 6 7 1022.2 - 0.0
28/09:00am 12.3 11.3 12.3 100 0.0 ESE 9 11 5 6 1022.3 1022.3 0.2
28/08:30am 11.2 - 11.3 - - SE 9 11 5 6 1022.3 - 0.2
28/08:00am 10.0 8.7 10.0 100 0.0 S 7 11 4 6 1022.1 - 0.2
28/07:38am 10.0 5.1 10.0 100 0.0 S 26 104 14 56 1022.0 - 0.2
28/07:30am 9.9 -9.5 9.9 100 0.0 S 102 104 55 56 1021.9 - 0.2
28/07:27am 9.8 -9.6 9.8 100 0.0 S 102 104 55 56 1021.8 - 0.2
28/07:16am 10.0 -9.7 10.0 100 0.0 SSE 104 106 56 57 1021.7 - 0.2
28/07:00am 10.2 -9.5 10.2 100 0.0 S 104 104 56 56 1021.8 - 0.2
28/06:54am 10.1 -9.6 10.1 100 0.0 S 104 104 56 56 1021.7 - 0.2
28/06:53am 10.1 -9.6 10.1 100 0.0 E 104 104 56 56 1021.7 - 0.2
28/06:52am 10.1 -9.6 10.1 100 0.0 ENE 104 104 56 56 1021.7 - 0.2
28/06:51am 10.0 -4.0 10.0 100 0.0 ENE 74 104 40 56 1021.6 - 0.2
28/06:30am 9.6 8.4 9.6 100 0.0 ENE 6 7 3 4 1021.3 - 0.2
28/06:00am 10.0 8.3 10.0 100 0.0 ESE 9 11 5 6 1021.1 1021.0 0.0
28/05:30am 10.3 9.1 10.3 100 0.0 SE 7 9 4 5 1020.9 - 0.0
28/05:00am 10.8 9.7 10.8 100 0.0 E 7 9 4 5 1020.8 - 0.0
28/04:30am 10.9 9.1 10.9 100 0.0 E 11 13 6 7 1020.5 - 0.0
28/04:00am 11.1 9.8 11.1 100 0.0 ESE 9 13 5 7 1020.6 - 0.0
28/03:30am 11.1 9.8 11.1 100 0.0 SE 9 11 5 6 1020.4 - 0.0
28/03:00am 10.9 9.1 10.7 99 0.1 S 11 13 6 7 1020.4 1020.3 0.0
28/02:30am 11.2 9.8 11.0 99 0.1 S 9 13 5 7 1020.1 - 0.0
28/02:00am 11.3 10.3 11.1 99 0.1 SE 7 9 4 5 1019.9 - 0.0
28/01:30am 11.3 9.9 11.0 98 0.2 SE 9 11 5 6 1020.0 - 0.0
28/01:00am 10.4 8.7 9.8 96 0.3 S 9 11 5 6 1020.1 - 0.0
28/12:30am 11.3 9.8 10.7 96 0.3 S 9 11 5 6 1020.0 - 0.0
28/12:00am 11.8 10.5 11.2 96 0.3 SSE 9 11 5 6 1019.8 1019.7 0.0
 
Date/Time
WST
Temp
°C
App
Temp
°C
Dew
Point
Rel
Hum
%
Delta-T
°C
Wind Press
QNH
hPa
Press
MSL
hPa
Rain
since 9 am
mm
Dir
 
Spd
km/h
Gust
km/h
Spd
kts
Gust
kts
27/11:30pm 11.8 10.4 10.9 94 0.5 SE 9 11 5 6 1019.8 - 0.0
27/11:00pm 12.1 10.3 10.8 92 0.7 SE 11 11 6 6 1019.6 - 0.0
27/10:30pm 12.9 11.3 11.5 91 0.7 SSE 11 13 6 7 1019.9 - 0.0
27/10:00pm 13.6 11.3 11.7 88 1.0 ESE 15 17 8 9 1019.8 - 0.0
27/09:30pm 14.2 11.9 11.7 85 1.4 ESE 15 17 8 9 1020.2 - 0.0
27/09:00pm 14.6 12.1 11.0 79 1.9 ESE 15 19 8 10 1020.0 1019.9 0.0
27/08:30pm 15.2 13.4 12.0 81 1.7 SE 13 17 7 9 1020.0 - 0.0
27/08:00pm 16.2 14.6 12.7 80 1.9 SE 13 17 7 9 1020.2 - 0.0
27/07:30pm 16.1 14.8 12.5 79 2.0 NNW 11 17 6 9 1019.9 - 0.0
27/07:00pm 16.1 14.3 12.1 77 2.2 N 13 13 7 7 1019.6 - 0.0
27/06:30pm 16.9 16.3 12.4 75 2.5 N 7 9 4 5 1019.2 - 0.0
27/06:00pm 17.5 16.9 12.4 72 2.8 N 7 9 4 5 1019.0 1018.9 0.0
27/05:30pm 18.1 17.1 12.3 69 3.2 N 9 11 5 6 1019.1 - 0.0
27/05:00pm 18.7 18.3 12.5 67 3.5 NNE 6 7 3 4 1018.7 - 0.0
27/04:44pm 19.4 15.4 11.7 61 4.3 N 24 111 13 60 1018.7 - 0.0
27/04:30pm 19.6 0.3 11.6 60 4.4 N 104 106 56 57 1018.6 - 0.0
27/04:24pm 19.8 1.8 12.1 61 4.3 N 98 106 53 57 1018.7 - 0.0
27/04:08pm 20.3 19.6 11.5 57 4.9 N 6 104 3 56 1018.8 - 0.0
27/04:07pm 20.4 4.7 11.3 56 5.0 N 85 104 46 56 1018.8 - 0.0
27/04:03pm 20.4 1.3 10.8 54 5.3 N 102 106 55 57 1018.8 - 0.0
27/04:02pm 20.4 14.7 11.1 55 5.1 NNW 32 106 17 57 1018.8 - 0.0
27/04:00pm 20.4 18.7 11.1 55 5.1 NNW 11 106 6 57 1018.7 - 0.0
27/03:59pm 20.5 18.0 11.2 55 5.2 NNW 15 106 8 57 1018.7 - 0.0
27/03:58pm 20.6 9.0 11.2 55 5.2 NW 63 106 34 57 1018.7 - 0.0
27/03:31pm 21.8 2.3 10.9 50 6.0 W 104 106 56 57 1018.3 - 0.0
27/03:30pm 21.7 9.2 10.8 50 6.0 W 67 106 36 57 1018.3 - 0.0
27/03:28pm 21.1 20.1 10.3 50 5.9 W 6 106 3 57 1018.3 - 0.0
27/03:20pm 21.5 1.9 10.3 49 6.1 WSW 104 106 56 57 1018.4 - 0.0
27/03:19pm 21.8 10.4 10.6 49 6.2 WSW 61 106 33 57 1018.4 - 0.0
27/03:02pm 21.8 19.7 11.2 51 5.9 N 13 104 7 56 1018.6 - 0.0
27/03:01pm 21.8 10.6 11.2 51 5.9 N 61 104 33 56 1018.6 - 0.0
27/03:00pm 21.9 4.1 11.3 51 5.9 NW 96 106 52 57 1018.7 1018.6 0.0
27/02:58pm 22.0 5.7 12.0 53 5.7 WNW 89 106 48 57 1018.7 - 0.0
27/02:52pm 22.2 15.1 12.2 53 5.7 NW 41 106 22 57 1018.7 - 0.0
27/02:50pm 21.8 2.5 11.5 52 5.8 WNW 104 106 56 57 1018.7 - 0.0
27/02:38pm 21.9 21.3 11.6 52 5.8 WNW 6 111 3 60 1018.8 - 0.0
27/02:37pm 21.8 13.9 11.5 52 5.8 W 44 111 24 60 1018.8 - 0.0
27/02:32pm 21.7 2.4 11.4 52 5.8 W 104 111 56 60 1018.7 - 0.0
27/02:30pm 21.7 9.1 11.7 53 5.6 W 69 111 37 60 1018.7 - 0.0
27/02:13pm 21.9 20.8 11.9 53 5.7 NW 9 106 5 57 1018.8 - 0.0
27/02:09pm 21.5 6.2 11.5 53 5.6 N 83 106 45 57 1018.8 - 0.0
27/02:08pm 21.6 15.1 11.6 53 5.6 N 37 106 20 57 1018.8 - 0.0
27/02:07pm 22.0 19.5 12.3 54 5.5 NNW 17 106 9 57 1018.8 - 0.0
27/02:06pm 21.6 11.2 12.5 56 5.2 NW 59 106 32 57 1018.8 - 0.0
27/02:00pm 21.2 20.0 11.5 54 5.4 NNW 9 13 5 7 1018.9 - 0.0
27/01:49pm 21.7 21.1 12.3 55 5.3 N 7 106 4 57 1018.9 - 0.0
27/01:47pm 21.8 13.4 12.4 55 5.4 NNW 48 106 26 57 1018.9 - 0.0
27/01:30pm 21.4 20.1 9.9 48 6.3 NW 7 13 4 7 1018.8 - 0.0
27/01:00pm 20.6 19.1 13.1 62 4.3 N 13 20 7 11 1019.2 - 0.0
27/12:30pm 20.2 19.1 14.3 69 3.4 N 13 17 7 9 1019.6 - 0.0
27/12:00pm 19.8 19.5 14.4 71 3.1 NNE 9 15 5 8 1020.0 1019.9 0.0
27/11:30am 19.3 19.1 14.6 74 2.8 ENE 9 19 5 10 1020.4 - 0.0
27/11:00am 17.8 17.7 13.9 78 2.2 NNE 7 13 4 7 1021.0 - 0.0
27/10:47am 17.0 16.1 13.7 81 1.9 NE 11 104 6 56 1021.3 - 0.0
27/10:45am 17.1 6.0 14.0 82 1.8 N 65 104 35 56 1021.3 - 0.0
27/10:30am 16.0 16.0 14.2 89 1.0 NE 7 9 4 5 1021.6 - 0.0
27/10:00am 15.0 14.5 14.8 99 0.1 NNE 11 17 6 9 1021.9 - 0.0
27/09:30am 13.7 12.4 13.7 100 0.0 NNE 13 17 7 9 1022.6 - 0.0
27/09:00am 13.1 12.7 13.1 100 0.0 NNE 7 107 4 58 1022.6 1022.6 0.4
27/08:58am 13.0 7.3 13.0 100 0.0 NNE 35 107 19 58 1022.5 - 0.4
27/08:51am 12.8 -4.0 12.8 100 0.0 NE 93 107 50 58 1022.4 - 0.4
27/08:50am 12.8 5.5 12.8 100 0.0 NE 43 106 23 57 1022.5 - 0.4
27/08:30am 12.8 12.5 12.8 100 0.0 N 6 9 3 5 1022.6 - 0.4
27/08:00am 12.2 - 12.4 - - NNW 9 11 5 6 1022.3 - 0.4
27/07:30am 11.1 - 11.2 - - NNW 9 11 5 6 1022.3 - 0.4
27/07:00am 10.0 8.3 10.0 100 0.0 N 9 11 5 6 1022.0 - 0.4
27/06:30am 9.4 8.0 9.4 100 0.0 N 7 9 4 5 1021.8 - 0.2
27/06:00am 9.1 7.8 9.1 100 0.0 N 6 7 3 4 1021.4 1021.3 0.2
27/05:43am 8.8 1.5 8.8 100 0.0 N 37 107 20 58 1021.3 - 0.2
27/05:36am 8.8 -10.8 8.8 100 0.0 N 102 106 55 57 1021.3 - 0.2
27/05:30am 8.8 7.4 8.8 100 0.0 NNW 6 7 3 4 1021.2 - 0.2
27/05:00am 9.0 7.1 9.0 100 0.0 NNW 9 9 5 5 1021.2 - 0.2
27/04:30am 9.8 8.5 9.8 100 0.0 NNW 7 11 4 6 1021.2 - 0.2
27/04:00am 10.0 8.7 10.0 100 0.0 NNW 7 11 4 6 1021.1 - 0.2
27/03:30am 10.2 9.2 10.2 100 0.0 NNW 6 7 3 4 1021.0 - 0.2
27/03:00am 10.3 8.7 10.3 100 0.0 W 9 11 5 6 1021.4 1021.3 0.2
27/02:30am 10.3 8.0 10.3 100 0.0 WSW 13 15 7 8 1021.5 - 0.2
27/02:00am 9.3 6.3 9.3 100 0.0 SW 15 20 8 11 1021.5 - 0.2
27/01:30am 8.8 6.4 8.7 99 0.0 WSW 11 13 6 7 1021.6 - 0.2
27/01:15am 8.9 2.0 8.8 99 0.0 W 35 107 19 58 1021.5 - 0.2
27/01:00am 9.3 -11.0 9.2 99 0.0 WNW 106 106 57 57 1021.5 - 0.0
27/12:52am 8.8 -11.2 8.7 99 0.0 WNW 104 106 56 57 1021.5 - 0.0
27/12:30am 9.7 7.9 9.6 99 0.1 NW 9 107 5 58 1021.4 - 0.0
27/12:27am 9.5 3.1 9.4 99 0.1 NW 33 107 18 58 1021.5 - 0.0
27/12:17am 8.9 -9.1 8.6 98 0.1 NW 93 107 50 58 1021.5 - 0.0
27/12:00am 9.7 7.2 9.6 99 0.1 NW 13 15 7 8 1021.4 1021.3 0.0
 
Date/Time
WST
Temp
°C
App
Temp
°C
Dew
Point
Rel
Hum
%
Delta-T
°C
Wind Press
QNH
hPa
Press
MSL
hPa
Rain
since 9 am
mm
Dir
 
Spd
km/h
Gust
km/h
Spd
kts
Gust
kts
26/11:30pm 10.1 7.7 9.9 99 0.1 NW 13 15 7 8 1021.9 - 0.0
26/11:00pm 10.5 7.8 10.3 99 0.1 NW 15 17 8 9 1022.0 - 0.0
26/10:30pm 10.5 7.8 10.2 98 0.2 NW 15 15 8 8 1022.2 - 0.0
26/10:00pm 11.1 8.5 10.8 98 0.2 NW 15 17 8 9 1022.4 - 0.0
26/09:30pm 11.3 9.1 10.8 97 0.3 NW 13 15 7 8 1022.5 - 0.0
26/09:00pm 11.7 9.6 11.2 97 0.3 NNW 13 15 7 8 1022.4 1022.4 0.0
26/08:30pm 12.3 9.6 11.8 97 0.3 NNW 17 17 9 9 1022.3 - 0.0
26/08:00pm 12.7 10.2 12.2 97 0.3 NNW 17 20 9 11 1022.4 - 0.0
26/07:30pm 12.6 10.4 12.1 97 0.3 NNW 15 17 8 9 1022.5 - 0.0
26/07:00pm 12.8 11.0 12.0 95 0.4 NNW 13 15 7 8 1022.4 - 0.0
26/06:30pm 13.6 12.4 12.7 94 0.5 NNW 11 13 6 7 1022.1 - 0.0
26/06:00pm 14.5 13.0 13.0 91 0.8 NNW 13 15 7 8 1022.0 1022.0 0.0
26/05:30pm 15.5 13.4 13.5 88 1.1 NNW 17 20 9 11 1021.7 - 0.0
26/05:00pm 16.4 13.8 13.9 85 1.4 NNW 20 26 11 14 1021.3 - 0.0
26/04:30pm 17.6 15.1 14.1 80 2.0 NNW 20 24 11 13 1021.0 - 0.0
26/04:00pm 18.5 16.0 14.0 75 2.6 N 20 26 11 14 1021.1 - 0.0
26/03:30pm 18.8 16.2 13.9 73 2.8 N 20 24 11 13 1020.9 - 0.0
26/03:00pm 19.5 17.2 14.1 71 3.1 NNW 19 24 10 13 1020.8 1020.7 0.0
26/02:30pm 18.8 16.3 13.4 71 3.1 NNW 19 26 10 14 1020.8 - 0.0
26/02:00pm 19.0 16.8 14.5 75 2.6 N 19 22 10 12 1020.9 - 0.0
26/01:30pm 18.6 16.0 14.9 79 2.2 NNW 22 33 12 18 1021.2 - 0.0
26/01:00pm 18.3 16.0 14.6 79 2.2 N 20 30 11 16 1021.5 - 0.0
26/12:30pm 18.0 16.1 14.3 79 2.1 NNW 17 22 9 12 1021.5 - 0.0
26/12:00pm 18.1 17.2 14.8 81 1.9 NNW 13 17 7 9 1021.8 1021.7 0.0
26/11:30am 17.4 16.1 14.9 85 1.5 NNW 15 20 8 11 1022.3 - 0.0
26/11:00am 17.4 16.9 14.9 85 1.5 NW 11 20 6 11 1022.6 - 0.0
26/10:30am 15.9 15.9 15.3 96 0.4 NW 9 15 5 8 1023.1 - 0.0
26/10:00am 15.2 14.7 15.0 99 0.1 WNW 11 15 6 8 1023.5 - 0.0
26/09:30am 14.6 14.0 14.6 100 0.0 WNW 11 15 6 8 1023.5 - 0.0
26/09:00am 14.3 13.6 14.3 100 0.0 WNW 11 17 6 9 1023.8 1023.8 1.4
26/08:30am 14.2 12.7 14.2 100 0.0 WNW 15 20 8 11 1023.7 - 1.4

Other Formats:

Comma delimited format used in spreadsheet applications
http://www.bom.gov.au/fwo/IDW60801/IDW60801.95646.axf

JavaScript Object Notation format (JSON) in row-major order
http://www.bom.gov.au/fwo/IDW60801/IDW60801.95646.json